sensor_id;sensor_type;location;lat;lon;timestamp;P1;durP1;ratioP1;P2;durP2;ratioP2
63818;SDS011;49970;54.976;73.248;2022-12-18T00:03:52;39.42;;;17.08;;
63818;SDS011;49970;54.976;73.248;2022-12-18T00:06:20;39.90;;;20.38;;
63818;SDS011;49970;54.976;73.248;2022-12-18T00:08:47;41.28;;;20.85;;
63818;SDS011;49970;54.976;73.248;2022-12-18T00:11:16;42.10;;;18.45;;
63818;SDS011;49970;54.976;73.248;2022-12-18T00:13:44;38.60;;;18.38;;
63818;SDS011;49970;54.976;73.248;2022-12-18T00:16:12;55.53;;;19.95;;
63818;SDS011;49970;54.976;73.248;2022-12-18T00:18:40;45.28;;;19.08;;
63818;SDS011;49970;54.976;73.248;2022-12-18T00:21:17;44.75;;;20.23;;
63818;SDS011;49970;54.976;73.248;2022-12-18T00:23:45;42.88;;;20.67;;
63818;SDS011;49970;54.976;73.248;2022-12-18T00:26:14;47.83;;;19.98;;
63818;SDS011;49970;54.976;73.248;2022-12-18T00:28:42;40.78;;;20.13;;
63818;SDS011;49970;54.976;73.248;2022-12-18T00:31:17;41.60;;;19.40;;
63818;SDS011;49970;54.976;73.248;2022-12-18T00:33:45;56.78;;;20.02;;
63818;SDS011;49970;54.976;73.248;2022-12-18T00:36:22;40.17;;;19.73;;
63818;SDS011;49970;54.976;73.248;2022-12-18T00:38:57;48.10;;;19.05;;
63818;SDS011;49970;54.976;73.248;2022-12-18T00:41:24;28.88;;;17.58;;
63818;SDS011;49970;54.976;73.248;2022-12-18T00:44:10;41.38;;;19.58;;
63818;SDS011;49970;54.976;73.248;2022-12-18T00:46:44;52.92;;;22.75;;
63818;SDS011;49970;54.976;73.248;2022-12-18T00:49:11;51.42;;;21.58;;
63818;SDS011;49970;54.976;73.248;2022-12-18T00:51:37;48.10;;;20.05;;
63818;SDS011;49970;54.976;73.248;2022-12-18T00:54:04;42.88;;;19.88;;
63818;SDS011;49970;54.976;73.248;2022-12-18T00:56:30;47.03;;;19.35;;
63818;SDS011;49970;54.976;73.248;2022-12-18T00:59:07;41.75;;;20.33;;
63818;SDS011;49970;54.976;73.248;2022-12-18T01:01:33;42.42;;;20.80;;
63818;SDS011;49970;54.976;73.248;2022-12-18T01:04:00;40.60;;;20.38;;
63818;SDS011;49970;54.976;73.248;2022-12-18T01:06:28;68.53;;;23.27;;
63818;SDS011;49970;54.976;73.248;2022-12-18T01:08:55;44.78;;;21.55;;
63818;SDS011;49970;54.976;73.248;2022-12-18T01:11:21;44.13;;;21.90;;
63818;SDS011;49970;54.976;73.248;2022-12-18T01:13:49;51.08;;;22.45;;
63818;SDS011;49970;54.976;73.248;2022-12-18T01:16:27;48.72;;;21.38;;
63818;SDS011;49970;54.976;73.248;2022-12-18T01:18:53;47.22;;;21.35;;
63818;SDS011;49970;54.976;73.248;2022-12-18T01:21:24;47.92;;;20.80;;
63818;SDS011;49970;54.976;73.248;2022-12-18T01:23:51;45.15;;;21.63;;
63818;SDS011;49970;54.976;73.248;2022-12-18T01:26:19;46.47;;;20.25;;
63818;SDS011;49970;54.976;73.248;2022-12-18T01:28:45;43.70;;;21.98;;
63818;SDS011;49970;54.976;73.248;2022-12-18T01:31:16;42.65;;;19.52;;
63818;SDS011;49970;54.976;73.248;2022-12-18T01:33:52;42.00;;;19.45;;
63818;SDS011;49970;54.976;73.248;2022-12-18T01:36:29;61.63;;;21.52;;
63818;SDS011;49970;54.976;73.248;2022-12-18T01:39:00;42.15;;;19.63;;
63818;SDS011;49970;54.976;73.248;2022-12-18T01:41:29;47.15;;;21.05;;
63818;SDS011;49970;54.976;73.248;2022-12-18T01:49:58;41.08;;;19.70;;
63818;SDS011;49970;54.976;73.248;2022-12-18T01:52:28;41.63;;;19.02;;
63818;SDS011;49970;54.976;73.248;2022-12-18T01:55:04;48.67;;;21.50;;
63818;SDS011;49970;54.976;73.248;2022-12-18T01:57:45;50.70;;;23.13;;
63818;SDS011;49970;54.976;73.248;2022-12-18T02:00:19;43.42;;;20.35;;
63818;SDS011;49970;54.976;73.248;2022-12-18T02:02:57;46.70;;;18.77;;
63818;SDS011;49970;54.976;73.248;2022-12-18T02:05:29;38.60;;;21.02;;
63818;SDS011;49970;54.976;73.248;2022-12-18T02:10:52;49.75;;;20.95;;
63818;SDS011;49970;54.976;73.248;2022-12-18T02:13:43;53.85;;;20.40;;
63818;SDS011;49970;54.976;73.248;2022-12-18T02:16:21;51.65;;;22.20;;
63818;SDS011;49970;54.976;73.248;2022-12-18T02:27:56;54.25;;;20.80;;
63818;SDS011;49970;54.976;73.248;2022-12-18T02:30:39;49.28;;;20.90;;
63818;SDS011;49970;54.976;73.248;2022-12-18T02:35:38;40.78;;;19.20;;
63818;SDS011;49970;54.976;73.248;2022-12-18T02:38:12;40.88;;;21.35;;
63818;SDS011;49970;54.976;73.248;2022-12-18T02:40:44;51.63;;;22.87;;
63818;SDS011;49970;54.976;73.248;2022-12-18T02:43:15;45.63;;;22.38;;
63818;SDS011;49970;54.976;73.248;2022-12-18T02:45:54;46.25;;;21.08;;
63818;SDS011;49970;54.976;73.248;2022-12-18T02:48:34;44.65;;;20.20;;
63818;SDS011;49970;54.976;73.248;2022-12-18T02:53:45;53.60;;;22.50;;
63818;SDS011;49970;54.976;73.248;2022-12-18T02:56:30;52.80;;;22.40;;
63818;SDS011;49970;54.976;73.248;2022-12-18T02:59:10;47.10;;;20.83;;
63818;SDS011;49970;54.976;73.248;2022-12-18T03:01:57;65.05;;;23.05;;
63818;SDS011;49970;54.976;73.248;2022-12-18T03:07:02;56.15;;;22.42;;
63818;SDS011;49970;54.976;73.248;2022-12-18T03:09:41;59.80;;;22.55;;
63818;SDS011;49970;54.976;73.248;2022-12-18T03:12:34;43.92;;;20.92;;
63818;SDS011;49970;54.976;73.248;2022-12-18T03:15:26;60.22;;;21.45;;
63818;SDS011;49970;54.976;73.248;2022-12-18T03:18:05;40.05;;;21.38;;
63818;SDS011;49970;54.976;73.248;2022-12-18T03:20:36;50.50;;;21.20;;
63818;SDS011;49970;54.976;73.248;2022-12-18T03:23:11;53.10;;;21.45;;
63818;SDS011;49970;54.976;73.248;2022-12-18T03:25:44;49.53;;;22.58;;
63818;SDS011;49970;54.976;73.248;2022-12-18T03:28:14;47.97;;;22.70;;
63818;SDS011;49970;54.976;73.248;2022-12-18T03:32:06;57.00;;;23.52;;
63818;SDS011;49970;54.976;73.248;2022-12-18T03:36:00;50.80;;;22.75;;
63818;SDS011;49970;54.976;73.248;2022-12-18T03:39:53;53.88;;;23.40;;
63818;SDS011;49970;54.976;73.248;2022-12-18T03:43:49;49.95;;;23.00;;
63818;SDS011;49970;54.976;73.248;2022-12-18T03:52:40;58.13;;;23.63;;
63818;SDS011;49970;54.976;73.248;2022-12-18T03:55:12;57.40;;;26.30;;
63818;SDS011;49970;54.976;73.248;2022-12-18T03:57:40;58.28;;;25.80;;
63818;SDS011;49970;54.976;73.248;2022-12-18T04:00:15;59.30;;;26.52;;
63818;SDS011;49970;54.976;73.248;2022-12-18T04:02:56;53.17;;;27.27;;
63818;SDS011;49970;54.976;73.248;2022-12-18T04:05:40;65.68;;;26.90;;
63818;SDS011;49970;54.976;73.248;2022-12-18T04:08:14;67.28;;;28.40;;
63818;SDS011;49970;54.976;73.248;2022-12-18T04:10:46;80.00;;;29.73;;
63818;SDS011;49970;54.976;73.248;2022-12-18T04:13:21;72.70;;;32.38;;
63818;SDS011;49970;54.976;73.248;2022-12-18T04:15:58;72.50;;;28.48;;
63818;SDS011;49970;54.976;73.248;2022-12-18T04:18:31;66.57;;;28.75;;
63818;SDS011;49970;54.976;73.248;2022-12-18T04:20:59;82.47;;;32.05;;
63818;SDS011;49970;54.976;73.248;2022-12-18T04:23:27;90.13;;;31.27;;
63818;SDS011;49970;54.976;73.248;2022-12-18T04:25:56;64.50;;;28.95;;
63818;SDS011;49970;54.976;73.248;2022-12-18T04:28:38;75.95;;;31.85;;
63818;SDS011;49970;54.976;73.248;2022-12-18T04:31:04;73.32;;;32.15;;
63818;SDS011;49970;54.976;73.248;2022-12-18T04:33:30;75.00;;;34.33;;
63818;SDS011;49970;54.976;73.248;2022-12-18T04:35:57;89.82;;;34.08;;
63818;SDS011;49970;54.976;73.248;2022-12-18T04:38:24;78.47;;;33.42;;
63818;SDS011;49970;54.976;73.248;2022-12-18T04:41:08;73.18;;;33.95;;
63818;SDS011;49970;54.976;73.248;2022-12-18T04:43:35;74.90;;;33.50;;
63818;SDS011;49970;54.976;73.248;2022-12-18T04:46:04;81.60;;;33.33;;
63818;SDS011;49970;54.976;73.248;2022-12-18T04:48:35;98.05;;;34.85;;
63818;SDS011;49970;54.976;73.248;2022-12-18T04:51:07;74.72;;;33.00;;
63818;SDS011;49970;54.976;73.248;2022-12-18T04:53:44;75.32;;;33.70;;
63818;SDS011;49970;54.976;73.248;2022-12-18T04:56:27;76.50;;;34.40;;
63818;SDS011;49970;54.976;73.248;2022-12-18T04:58:53;81.82;;;34.30;;
63818;SDS011;49970;54.976;73.248;2022-12-18T05:01:20;85.78;;;33.22;;
63818;SDS011;49970;54.976;73.248;2022-12-18T05:03:46;92.88;;;36.88;;
63818;SDS011;49970;54.976;73.248;2022-12-18T05:06:12;88.90;;;36.25;;
63818;SDS011;49970;54.976;73.248;2022-12-18T05:08:40;81.85;;;36.95;;
63818;SDS011;49970;54.976;73.248;2022-12-18T05:11:07;81.93;;;37.30;;
63818;SDS011;49970;54.976;73.248;2022-12-18T05:13:45;91.95;;;39.92;;
63818;SDS011;49970;54.976;73.248;2022-12-18T05:16:12;131.18;;;49.83;;
63818;SDS011;49970;54.976;73.248;2022-12-18T05:18:40;141.00;;;55.28;;
63818;SDS011;49970;54.976;73.248;2022-12-18T05:21:06;207.88;;;83.35;;
63818;SDS011;49970;54.976;73.248;2022-12-18T05:23:32;161.65;;;66.40;;
63818;SDS011;49970;54.976;73.248;2022-12-18T05:26:02;152.13;;;60.25;;
63818;SDS011;49970;54.976;73.248;2022-12-18T05:28:30;147.25;;;63.50;;
63818;SDS011;49970;54.976;73.248;2022-12-18T05:30:59;152.27;;;61.03;;
63818;SDS011;49970;54.976;73.248;2022-12-18T05:33:31;140.93;;;58.50;;
63818;SDS011;49970;54.976;73.248;2022-12-18T05:36:00;137.45;;;49.15;;
63818;SDS011;49970;54.976;73.248;2022-12-18T05:38:28;132.13;;;49.08;;
63818;SDS011;49970;54.976;73.248;2022-12-18T05:40:56;113.97;;;47.55;;
63818;SDS011;49970;54.976;73.248;2022-12-18T05:43:23;115.10;;;49.90;;
63818;SDS011;49970;54.976;73.248;2022-12-18T05:45:50;134.63;;;46.55;;
63818;SDS011;49970;54.976;73.248;2022-12-18T05:48:17;133.48;;;48.92;;
63818;SDS011;49970;54.976;73.248;2022-12-18T05:50:44;149.23;;;50.50;;
63818;SDS011;49970;54.976;73.248;2022-12-18T05:53:11;122.50;;;48.05;;
63818;SDS011;49970;54.976;73.248;2022-12-18T05:55:38;123.57;;;49.42;;
63818;SDS011;49970;54.976;73.248;2022-12-18T05:58:06;119.13;;;50.42;;
63818;SDS011;49970;54.976;73.248;2022-12-18T06:00:34;124.30;;;49.13;;
63818;SDS011;49970;54.976;73.248;2022-12-18T06:03:10;119.43;;;51.92;;
63818;SDS011;49970;54.976;73.248;2022-12-18T06:05:38;128.43;;;48.03;;
63818;SDS011;49970;54.976;73.248;2022-12-18T06:08:05;158.95;;;56.63;;
63818;SDS011;49970;54.976;73.248;2022-12-18T06:10:32;146.20;;;54.72;;
63818;SDS011;49970;54.976;73.248;2022-12-18T06:13:08;136.35;;;53.63;;
63818;SDS011;49970;54.976;73.248;2022-12-18T06:15:41;127.05;;;50.63;;
63818;SDS011;49970;54.976;73.248;2022-12-18T06:18:08;130.73;;;51.50;;
63818;SDS011;49970;54.976;73.248;2022-12-18T06:20:34;131.30;;;51.83;;
63818;SDS011;49970;54.976;73.248;2022-12-18T06:23:02;142.52;;;53.38;;
63818;SDS011;49970;54.976;73.248;2022-12-18T06:25:36;139.70;;;52.83;;
63818;SDS011;49970;54.976;73.248;2022-12-18T06:28:04;137.27;;;51.88;;
63818;SDS011;49970;54.976;73.248;2022-12-18T06:30:30;130.57;;;52.42;;
63818;SDS011;49970;54.976;73.248;2022-12-18T06:32:57;128.27;;;51.30;;
63818;SDS011;49970;54.976;73.248;2022-12-18T06:35:28;116.53;;;47.95;;
63818;SDS011;49970;54.976;73.248;2022-12-18T06:38:00;112.75;;;46.55;;
63818;SDS011;49970;54.976;73.248;2022-12-18T06:41:50;116.90;;;45.70;;
63818;SDS011;49970;54.976;73.248;2022-12-18T06:44:21;115.07;;;49.63;;
63818;SDS011;49970;54.976;73.248;2022-12-18T06:46:48;124.75;;;55.50;;
63818;SDS011;49970;54.976;73.248;2022-12-18T06:49:14;141.10;;;53.22;;
63818;SDS011;49970;54.976;73.248;2022-12-18T06:51:41;133.85;;;53.60;;
63818;SDS011;49970;54.976;73.248;2022-12-18T06:54:08;108.60;;;41.35;;
63818;SDS011;49970;54.976;73.248;2022-12-18T06:56:34;112.50;;;44.25;;
63818;SDS011;49970;54.976;73.248;2022-12-18T06:59:00;113.00;;;46.42;;
63818;SDS011;49970;54.976;73.248;2022-12-18T07:01:27;101.95;;;42.90;;
63818;SDS011;49970;54.976;73.248;2022-12-18T07:03:55;119.32;;;46.67;;
63818;SDS011;49970;54.976;73.248;2022-12-18T07:06:26;93.75;;;42.40;;
63818;SDS011;49970;54.976;73.248;2022-12-18T07:08:52;93.82;;;40.08;;
63818;SDS011;49970;54.976;73.248;2022-12-18T07:11:19;91.40;;;42.28;;
63818;SDS011;49970;54.976;73.248;2022-12-18T07:13:46;95.50;;;42.53;;
63818;SDS011;49970;54.976;73.248;2022-12-18T07:16:18;106.53;;;47.40;;
63818;SDS011;49970;54.976;73.248;2022-12-18T07:18:46;112.60;;;50.47;;
63818;SDS011;49970;54.976;73.248;2022-12-18T07:21:18;126.53;;;55.28;;
63818;SDS011;49970;54.976;73.248;2022-12-18T07:23:55;130.80;;;57.45;;
63818;SDS011;49970;54.976;73.248;2022-12-18T07:26:23;162.57;;;74.43;;
63818;SDS011;49970;54.976;73.248;2022-12-18T07:28:50;165.88;;;75.55;;
63818;SDS011;49970;54.976;73.248;2022-12-18T07:31:25;176.98;;;89.72;;
63818;SDS011;49970;54.976;73.248;2022-12-18T07:34:02;155.70;;;77.38;;
63818;SDS011;49970;54.976;73.248;2022-12-18T07:36:28;156.25;;;77.47;;
63818;SDS011;49970;54.976;73.248;2022-12-18T07:38:54;146.88;;;69.05;;
63818;SDS011;49970;54.976;73.248;2022-12-18T07:41:21;102.65;;;47.53;;
63818;SDS011;49970;54.976;73.248;2022-12-18T07:43:47;122.80;;;51.00;;
63818;SDS011;49970;54.976;73.248;2022-12-18T07:46:14;101.57;;;47.67;;
63818;SDS011;49970;54.976;73.248;2022-12-18T07:49:45;94.38;;;40.67;;
63818;SDS011;49970;54.976;73.248;2022-12-18T07:52:11;92.07;;;42.67;;
63818;SDS011;49970;54.976;73.248;2022-12-18T07:54:47;91.57;;;42.40;;
63818;SDS011;49970;54.976;73.248;2022-12-18T07:57:15;101.28;;;43.05;;
63818;SDS011;49970;54.976;73.248;2022-12-18T07:59:42;95.60;;;41.33;;
63818;SDS011;49970;54.976;73.248;2022-12-18T08:02:09;88.20;;;41.67;;
63818;SDS011;49970;54.976;73.248;2022-12-18T08:04:35;98.13;;;43.25;;
63818;SDS011;49970;54.976;73.248;2022-12-18T08:07:04;86.82;;;41.30;;
63818;SDS011;49970;54.976;73.248;2022-12-18T08:09:30;90.05;;;42.33;;
63818;SDS011;49970;54.976;73.248;2022-12-18T08:11:56;102.80;;;42.80;;
63818;SDS011;49970;54.976;73.248;2022-12-18T08:14:22;92.55;;;44.25;;
63818;SDS011;49970;54.976;73.248;2022-12-18T08:16:48;112.05;;;47.38;;
63818;SDS011;49970;54.976;73.248;2022-12-18T08:19:15;106.47;;;44.45;;
63818;SDS011;49970;54.976;73.248;2022-12-18T08:21:51;104.07;;;44.83;;
63818;SDS011;49970;54.976;73.248;2022-12-18T08:24:17;105.93;;;45.33;;
63818;SDS011;49970;54.976;73.248;2022-12-18T08:26:48;87.72;;;41.95;;
63818;SDS011;49970;54.976;73.248;2022-12-18T08:29:14;86.70;;;42.58;;
63818;SDS011;49970;54.976;73.248;2022-12-18T08:31:40;96.40;;;46.00;;
63818;SDS011;49970;54.976;73.248;2022-12-18T08:34:07;104.03;;;42.28;;
63818;SDS011;49970;54.976;73.248;2022-12-18T08:36:34;97.28;;;38.55;;
63818;SDS011;49970;54.976;73.248;2022-12-18T08:39:00;82.38;;;38.53;;
63818;SDS011;49970;54.976;73.248;2022-12-18T08:41:26;89.45;;;37.33;;
63818;SDS011;49970;54.976;73.248;2022-12-18T08:43:52;79.53;;;37.03;;
63818;SDS011;49970;54.976;73.248;2022-12-18T08:46:38;78.45;;;38.10;;
63818;SDS011;49970;54.976;73.248;2022-12-18T08:49:06;87.22;;;37.05;;
63818;SDS011;49970;54.976;73.248;2022-12-18T08:51:33;74.13;;;36.22;;
63818;SDS011;49970;54.976;73.248;2022-12-18T08:54:00;81.25;;;35.25;;
63818;SDS011;49970;54.976;73.248;2022-12-18T08:56:31;72.57;;;34.28;;
63818;SDS011;49970;54.976;73.248;2022-12-18T08:58:58;76.63;;;34.53;;
63818;SDS011;49970;54.976;73.248;2022-12-18T09:01:24;64.85;;;32.03;;
63818;SDS011;49970;54.976;73.248;2022-12-18T09:05:15;68.88;;;33.05;;
63818;SDS011;49970;54.976;73.248;2022-12-18T09:09:07;76.68;;;32.55;;
63818;SDS011;49970;54.976;73.248;2022-12-18T09:12:58;79.15;;;30.55;;
63818;SDS011;49970;54.976;73.248;2022-12-18T09:16:50;68.68;;;31.73;;
63818;SDS011;49970;54.976;73.248;2022-12-18T09:20:43;76.53;;;31.45;;
63818;SDS011;49970;54.976;73.248;2022-12-18T09:24:40;77.07;;;31.67;;
63818;SDS011;49970;54.976;73.248;2022-12-18T09:28:33;65.40;;;33.40;;
63818;SDS011;49970;54.976;73.248;2022-12-18T09:32:24;69.43;;;30.13;;
63818;SDS011;49970;54.976;73.248;2022-12-18T09:36:15;66.93;;;30.15;;
63818;SDS011;49970;54.976;73.248;2022-12-18T09:40:06;66.40;;;29.65;;
63818;SDS011;49970;54.976;73.248;2022-12-18T09:43:58;55.78;;;27.48;;
63818;SDS011;49970;54.976;73.248;2022-12-18T09:58:04;89.55;;;36.38;;
63818;SDS011;49970;54.976;73.248;2022-12-18T10:00:52;97.63;;;41.08;;
63818;SDS011;49970;54.976;73.248;2022-12-18T10:03:19;74.28;;;34.92;;
63818;SDS011;49970;54.976;73.248;2022-12-18T10:13:52;72.07;;;31.92;;
63818;SDS011;49970;54.976;73.248;2022-12-18T10:16:28;76.13;;;32.45;;
63818;SDS011;49970;54.976;73.248;2022-12-18T10:24:48;65.25;;;30.33;;
63818;SDS011;49970;54.976;73.248;2022-12-18T10:27:23;69.28;;;30.40;;
63818;SDS011;49970;54.976;73.248;2022-12-18T10:29:52;68.53;;;31.38;;
63818;SDS011;49970;54.976;73.248;2022-12-18T10:32:20;65.97;;;33.75;;
63818;SDS011;49970;54.976;73.248;2022-12-18T10:34:49;72.22;;;34.30;;
63818;SDS011;49970;54.976;73.248;2022-12-18T10:37:18;56.15;;;32.22;;
63818;SDS011;49970;54.976;73.248;2022-12-18T10:39:46;62.65;;;33.25;;
63818;SDS011;49970;54.976;73.248;2022-12-18T10:42:33;105.65;;;41.20;;
63818;SDS011;49970;54.976;73.248;2022-12-18T10:45:17;88.25;;;40.03;;
63818;SDS011;49970;54.976;73.248;2022-12-18T10:47:43;95.35;;;46.08;;
63818;SDS011;49970;54.976;73.248;2022-12-18T10:53:00;172.18;;;76.80;;
63818;SDS011;49970;54.976;73.248;2022-12-18T10:55:38;153.38;;;65.82;;
63818;SDS011;49970;54.976;73.248;2022-12-18T10:58:16;120.43;;;53.80;;
63818;SDS011;49970;54.976;73.248;2022-12-18T11:01:07;231.30;;;97.15;;
63818;SDS011;49970;54.976;73.248;2022-12-18T11:03:38;249.40;;;105.63;;
63818;SDS011;49970;54.976;73.248;2022-12-18T11:06:13;260.35;;;112.53;;
63818;SDS011;49970;54.976;73.248;2022-12-18T11:09:05;337.95;;;157.52;;
63818;SDS011;49970;54.976;73.248;2022-12-18T11:11:53;285.95;;;127.13;;
63818;SDS011;49970;54.976;73.248;2022-12-18T11:14:27;311.83;;;145.32;;
63818;SDS011;49970;54.976;73.248;2022-12-18T11:16:56;319.42;;;145.60;;
63818;SDS011;49970;54.976;73.248;2022-12-18T11:19:37;279.13;;;135.82;;
63818;SDS011;49970;54.976;73.248;2022-12-18T11:22:19;252.65;;;118.63;;
63818;SDS011;49970;54.976;73.248;2022-12-18T11:24:56;261.63;;;117.90;;
63818;SDS011;49970;54.976;73.248;2022-12-18T11:27:34;249.68;;;106.85;;
63818;SDS011;49970;54.976;73.248;2022-12-18T11:33:13;206.98;;;89.43;;
63818;SDS011;49970;54.976;73.248;2022-12-18T11:35:53;226.30;;;97.68;;
63818;SDS011;49970;54.976;73.248;2022-12-18T11:38:26;220.65;;;96.32;;
63818;SDS011;49970;54.976;73.248;2022-12-18T11:40:57;222.82;;;96.68;;
63818;SDS011;49970;54.976;73.248;2022-12-18T11:48:57;264.17;;;122.28;;
63818;SDS011;49970;54.976;73.248;2022-12-18T11:51:35;283.83;;;125.53;;
63818;SDS011;49970;54.976;73.248;2022-12-18T11:54:12;279.23;;;133.82;;
63818;SDS011;49970;54.976;73.248;2022-12-18T11:59:42;317.45;;;145.90;;
63818;SDS011;49970;54.976;73.248;2022-12-18T12:05:25;418.45;;;201.68;;
63818;SDS011;49970;54.976;73.248;2022-12-18T12:11:27;443.90;;;241.55;;
63818;SDS011;49970;54.976;73.248;2022-12-18T12:16:50;445.77;;;241.57;;
63818;SDS011;49970;54.976;73.248;2022-12-18T12:25:21;374.30;;;186.80;;
63818;SDS011;49970;54.976;73.248;2022-12-18T12:27:36;336.38;;;162.90;;
63818;SDS011;49970;54.976;73.248;2022-12-18T12:30:49;329.33;;;152.80;;
63818;SDS011;49970;54.976;73.248;2022-12-18T12:39:18;211.10;;;100.25;;
63818;SDS011;49970;54.976;73.248;2022-12-18T12:41:48;207.45;;;92.35;;
63818;SDS011;49970;54.976;73.248;2022-12-18T12:44:43;196.15;;;81.07;;
63818;SDS011;49970;54.976;73.248;2022-12-18T12:47:22;191.48;;;82.20;;
63818;SDS011;49970;54.976;73.248;2022-12-18T12:50:03;176.02;;;79.65;;
63818;SDS011;49970;54.976;73.248;2022-12-18T12:52:39;172.90;;;72.80;;
63818;SDS011;49970;54.976;73.248;2022-12-18T12:55:23;160.07;;;69.85;;
63818;SDS011;49970;54.976;73.248;2022-12-18T13:00:18;168.85;;;70.68;;
63818;SDS011;49970;54.976;73.248;2022-12-18T13:02:47;161.85;;;73.05;;
63818;SDS011;49970;54.976;73.248;2022-12-18T13:05:39;160.77;;;68.57;;
63818;SDS011;49970;54.976;73.248;2022-12-18T13:08:24;158.48;;;70.85;;
63818;SDS011;49970;54.976;73.248;2022-12-18T13:11:00;148.32;;;65.53;;
63818;SDS011;49970;54.976;73.248;2022-12-18T13:13:52;163.15;;;68.30;;
63818;SDS011;49970;54.976;73.248;2022-12-18T13:16:21;142.95;;;61.45;;
63818;SDS011;49970;54.976;73.248;2022-12-18T13:18:50;149.13;;;61.35;;
63818;SDS011;49970;54.976;73.248;2022-12-18T13:21:24;139.90;;;59.60;;
63818;SDS011;49970;54.976;73.248;2022-12-18T13:24:23;135.10;;;58.60;;
63818;SDS011;49970;54.976;73.248;2022-12-18T13:26:57;140.73;;;57.58;;
63818;SDS011;49970;54.976;73.248;2022-12-18T13:32:19;131.52;;;59.17;;
63818;SDS011;49970;54.976;73.248;2022-12-18T13:34:48;131.32;;;57.08;;
63818;SDS011;49970;54.976;73.248;2022-12-18T13:37:50;134.07;;;53.55;;
63818;SDS011;49970;54.976;73.248;2022-12-18T13:46:18;105.10;;;47.83;;
63818;SDS011;49970;54.976;73.248;2022-12-18T13:51:52;115.53;;;49.70;;
63818;SDS011;49970;54.976;73.248;2022-12-18T13:56:57;98.28;;;44.15;;
63818;SDS011;49970;54.976;73.248;2022-12-18T13:59:35;103.28;;;45.63;;
63818;SDS011;49970;54.976;73.248;2022-12-18T14:02:13;104.85;;;44.55;;
63818;SDS011;49970;54.976;73.248;2022-12-18T14:04:57;99.43;;;43.05;;
63818;SDS011;49970;54.976;73.248;2022-12-18T14:07:26;97.97;;;47.00;;
63818;SDS011;49970;54.976;73.248;2022-12-18T14:09:57;102.03;;;44.33;;
63818;SDS011;49970;54.976;73.248;2022-12-18T14:12:27;113.95;;;48.13;;
63818;SDS011;49970;54.976;73.248;2022-12-18T14:17:47;119.20;;;51.53;;
63818;SDS011;49970;54.976;73.248;2022-12-18T14:20:27;125.03;;;50.72;;
63818;SDS011;49970;54.976;73.248;2022-12-18T14:22:57;123.22;;;51.63;;
63818;SDS011;49970;54.976;73.248;2022-12-18T14:25:28;145.60;;;56.25;;
63818;SDS011;49970;54.976;73.248;2022-12-18T14:28:02;145.88;;;56.58;;
63818;SDS011;49970;54.976;73.248;2022-12-18T14:30:44;141.02;;;59.08;;
63818;SDS011;49970;54.976;73.248;2022-12-18T14:33:18;149.32;;;60.63;;
63818;SDS011;49970;54.976;73.248;2022-12-18T14:35:59;133.93;;;60.38;;
63818;SDS011;49970;54.976;73.248;2022-12-18T14:38:33;140.45;;;61.42;;
63818;SDS011;49970;54.976;73.248;2022-12-18T14:41:05;129.38;;;52.65;;
63818;SDS011;49970;54.976;73.248;2022-12-18T14:43:36;134.23;;;53.83;;
63818;SDS011;49970;54.976;73.248;2022-12-18T14:46:05;120.78;;;55.00;;
63818;SDS011;49970;54.976;73.248;2022-12-18T14:49:03;145.25;;;57.22;;
63818;SDS011;49970;54.976;73.248;2022-12-18T14:51:57;130.07;;;53.35;;
63818;SDS011;49970;54.976;73.248;2022-12-18T14:54:49;120.32;;;47.03;;
63818;SDS011;49970;54.976;73.248;2022-12-18T14:57:25;124.72;;;48.13;;
63818;SDS011;49970;54.976;73.248;2022-12-18T15:00:07;114.45;;;45.75;;
63818;SDS011;49970;54.976;73.248;2022-12-18T15:02:41;124.35;;;46.45;;
63818;SDS011;49970;54.976;73.248;2022-12-18T15:05:25;115.43;;;45.55;;
63818;SDS011;49970;54.976;73.248;2022-12-18T15:07:57;104.45;;;46.67;;
63818;SDS011;49970;54.976;73.248;2022-12-18T15:10:35;93.55;;;41.47;;
63818;SDS011;49970;54.976;73.248;2022-12-18T15:13:21;98.65;;;41.17;;
63818;SDS011;49970;54.976;73.248;2022-12-18T15:15:50;104.72;;;42.63;;
63818;SDS011;49970;54.976;73.248;2022-12-18T15:18:32;146.60;;;58.45;;
63818;SDS011;49970;54.976;73.248;2022-12-18T15:21:10;153.90;;;57.97;;
63818;SDS011;49970;54.976;73.248;2022-12-18T15:23:51;148.52;;;56.47;;
63818;SDS011;49970;54.976;73.248;2022-12-18T15:26:19;122.65;;;47.67;;
63818;SDS011;49970;54.976;73.248;2022-12-18T15:28:51;121.30;;;49.55;;
63818;SDS011;49970;54.976;73.248;2022-12-18T15:31:22;124.75;;;51.67;;
63818;SDS011;49970;54.976;73.248;2022-12-18T15:36:20;140.40;;;57.58;;
63818;SDS011;49970;54.976;73.248;2022-12-18T15:38:48;146.73;;;59.55;;
63818;SDS011;49970;54.976;73.248;2022-12-18T15:41:21;164.48;;;59.45;;
63818;SDS011;49970;54.976;73.248;2022-12-18T15:43:57;151.30;;;63.55;;
63818;SDS011;49970;54.976;73.248;2022-12-18T15:46:24;154.50;;;65.35;;
63818;SDS011;49970;54.976;73.248;2022-12-18T15:48:56;162.10;;;63.77;;
63818;SDS011;49970;54.976;73.248;2022-12-18T15:51:36;163.32;;;68.13;;
63818;SDS011;49970;54.976;73.248;2022-12-18T15:54:04;379.48;;;171.40;;
63818;SDS011;49970;54.976;73.248;2022-12-18T15:56:36;238.63;;;102.82;;
63818;SDS011;49970;54.976;73.248;2022-12-18T15:59:31;208.52;;;82.85;;
63818;SDS011;49970;54.976;73.248;2022-12-18T16:01:57;166.15;;;75.60;;
63818;SDS011;49970;54.976;73.248;2022-12-18T16:04:33;175.38;;;75.00;;
63818;SDS011;49970;54.976;73.248;2022-12-18T16:06:59;154.43;;;62.55;;
63818;SDS011;49970;54.976;73.248;2022-12-18T16:09:26;147.93;;;60.90;;
63818;SDS011;49970;54.976;73.248;2022-12-18T16:11:52;150.35;;;59.85;;
63818;SDS011;49970;54.976;73.248;2022-12-18T16:14:25;147.40;;;63.05;;
63818;SDS011;49970;54.976;73.248;2022-12-18T16:16:57;145.23;;;61.97;;
63818;SDS011;49970;54.976;73.248;2022-12-18T16:19:28;146.82;;;62.97;;
63818;SDS011;49970;54.976;73.248;2022-12-18T16:21:56;143.93;;;62.08;;
63818;SDS011;49970;54.976;73.248;2022-12-18T16:24:33;149.25;;;66.60;;
63818;SDS011;49970;54.976;73.248;2022-12-18T16:27:01;153.10;;;68.63;;
63818;SDS011;49970;54.976;73.248;2022-12-18T16:29:28;162.48;;;73.78;;
63818;SDS011;49970;54.976;73.248;2022-12-18T16:31:59;156.07;;;71.43;;
63818;SDS011;49970;54.976;73.248;2022-12-18T16:34:27;167.48;;;72.18;;
63818;SDS011;49970;54.976;73.248;2022-12-18T16:37:00;157.50;;;69.72;;
63818;SDS011;49970;54.976;73.248;2022-12-18T16:39:29;183.60;;;80.40;;
63818;SDS011;49970;54.976;73.248;2022-12-18T16:41:56;185.98;;;85.32;;
63818;SDS011;49970;54.976;73.248;2022-12-18T16:44:22;183.20;;;80.97;;
63818;SDS011;49970;54.976;73.248;2022-12-18T16:46:49;169.48;;;75.15;;
63818;SDS011;49970;54.976;73.248;2022-12-18T16:49:17;147.68;;;67.55;;
63818;SDS011;49970;54.976;73.248;2022-12-18T16:51:49;169.00;;;69.25;;